Airfield :
LOGIN :

Register | Disclaimer

   EN    FR    IT 

 










Legend :    VFR   Marginal VFR   IFR   Intensive IFR   Very Intensive IFR
Visi :
Ceiling :
>= 8 km
>= 3000ft
5 to 8 km
1000 to 3000 ft
1500m to 5 km
500 to 1000 ft
800 to 1500m
200 to 500 ft
< 800m
< 200 ft
Symbols :   Thunderstorms  Fog  Heavy snow  Heavy precipitations  Wind > 20 kt
SIGMETs :     Misc.  Thunderstorms  Icing  Turbulence  Mountain Waves  Volcanic Ashes






- Airport Elevation : 112 ft
- IATA code : SVQ


LEZL - Sevilla San Pablo

CURRENT METAR :
  • 220530Z 23011KT 9999 FEW030 14/13 Q1016 NOSIG

EXPIRED METARs :
  • 220500Z 23011KT 200V260 9999 FEW049 15/13 Q1016 NOSIG
  • 220430Z 23011KT 200V260 9999 FEW014 SCT049 15/13 Q1016 NOSIG
  • 220400Z AUTO 24012KT 210V270 9999 BKN014 OVC048 15/14 Q1017
  • 220330Z AUTO 24014KT 9999 FEW013 BKN040 OVC047 15/14 Q1017
  • 220300Z AUTO 24014KT 200V260 9999 BKN014 15/13 Q1017

TAF TAF LEZL
Valid from the 22 at 03:00 until the 23 at 03:00 UTC


220200Z 2203/2303 22012KT 9999 SCT020 BKN030 TX17/2215Z TN10/2303Z
PROB30
TEMPO 2203/2205 23015G25KT 4000 -RA BR BKN008
BECMG 2210/2212 28012KT
PROB40
TEMPO 2212/2217 27015G25KT
BECMG 2301/2303 31002KT



MET'MAP, your aeronautical weather chart ! - Copyright ORBIFLY December 2007 - Disclaimer

ORBIFLY MET'MAP TEAM :

Programming & Development : Alexandra Zaïnal
Concept & original design : Baudouin d'Aumeries
Assistance for programming : Marc-Olivier Méhu
Technical & hardware support : Manuel Goepfert

Contact : metmap@orbifly.com




SOURCES & CREDITS :

   NOAA